createdAt,value
2023-04-25T00:00:24.687Z,72.66
2023-04-25T00:02:51.999Z,73.61
2023-04-25T00:05:20.641Z,74.89
2023-04-25T00:07:47.941Z,75.52
2023-04-25T00:10:15.277Z,76.11
2023-04-25T00:12:42.771Z,76.55
2023-04-25T00:15:10.715Z,76.78
2023-04-25T00:17:39.463Z,76.29
2023-04-25T00:20:09.945Z,76.23
2023-04-25T00:22:38.485Z,76.74
2023-04-25T00:25:07.266Z,76.77
2023-04-25T00:27:34.639Z,76.11
2023-04-25T00:30:01.881Z,75.60
2023-04-25T00:32:29.288Z,75.42
2023-04-25T00:34:59.069Z,75.45
2023-04-25T00:37:26.443Z,75.26
2023-04-25T00:39:54.742Z,74.65
2023-04-25T00:42:22.104Z,74.35
2023-04-25T00:44:49.348Z,75.08
2023-04-25T00:47:16.760Z,75.97
2023-04-25T00:49:44.517Z,75.68
2023-04-25T00:52:13.135Z,75.39
2023-04-25T00:54:40.359Z,75.25
2023-04-25T00:57:07.678Z,75.75
2023-04-25T00:59:34.905Z,76.13
2023-04-25T01:02:02.243Z,76.14
2023-04-25T01:04:29.929Z,76.09
2023-04-25T01:06:57.801Z,76.79
2023-04-25T01:09:25.025Z,76.88
2023-04-25T01:11:52.499Z,76.85
2023-04-25T01:14:19.986Z,76.84
2023-04-25T01:16:47.489Z,77.44
2023-04-25T01:19:14.742Z,77.03
2023-04-25T01:21:42.016Z,76.54
2023-04-25T01:24:09.221Z,77.05
2023-04-25T01:26:36.523Z,76.68
2023-04-25T01:29:05.585Z,77.01
2023-04-25T01:31:33.322Z,78.29
2023-04-25T01:34:01.053Z,78.81
2023-04-25T01:36:30.083Z,78.80
2023-04-25T01:38:57.394Z,79.09
2023-04-25T01:41:24.777Z,78.92
2023-04-25T01:43:52.280Z,79.08
2023-04-25T01:46:20.026Z,79.07
2023-04-25T01:48:47.516Z,78.67
2023-04-25T01:51:14.954Z,78.66
2023-04-25T01:53:42.302Z,79.08
2023-04-25T01:56:09.885Z,79.38
2023-04-25T01:58:37.518Z,78.25
2023-04-25T02:01:11.814Z,78.54
2023-04-25T02:03:47.646Z,78.54
2023-04-25T02:06:36.945Z,78.71
2023-04-25T02:09:04.377Z,78.13
2023-04-25T02:11:32.712Z,79.01
2023-04-25T02:14:35.398Z,78.51
2023-04-25T02:17:07.066Z,78.48
2023-04-25T02:19:34.501Z,78.73
2023-04-25T02:22:02.325Z,78.93
2023-04-25T02:24:29.829Z,79.46
2023-04-25T02:26:57.675Z,79.77
2023-04-25T02:29:25.016Z,79.26
2023-04-25T02:31:52.350Z,79.00
2023-04-25T02:34:19.816Z,78.97
2023-04-25T02:36:47.071Z,79.12
2023-04-25T02:39:18.643Z,79.13
2023-04-25T02:41:46.132Z,78.77
2023-04-25T02:44:13.382Z,78.67
2023-04-25T02:46:40.746Z,78.93
2023-04-25T02:49:08.077Z,78.50
2023-04-25T02:51:36.367Z,77.24
2023-04-25T02:54:03.999Z,76.74
2023-04-25T02:56:35.246Z,75.96
2023-04-25T02:59:02.802Z,76.06
2023-04-25T03:01:31.063Z,76.00
2023-04-25T03:03:58.482Z,76.19
2023-04-25T03:06:25.821Z,76.91
2023-04-25T03:08:53.402Z,77.31
2023-04-25T03:11:21.352Z,77.54
2023-04-25T03:13:49.213Z,77.95
2023-04-25T03:16:17.254Z,78.48
2023-04-25T03:18:44.706Z,78.71
2023-04-25T03:21:12.465Z,79.26
2023-04-25T03:23:39.758Z,79.63
2023-04-25T03:26:08.529Z,79.99
2023-04-25T03:28:35.916Z,79.81
2023-04-25T03:31:03.246Z,79.73
2023-04-25T03:33:31.027Z,79.75
2023-04-25T03:35:58.659Z,79.69
2023-04-25T03:38:28.972Z,79.79
2023-04-25T03:40:57.482Z,79.13
2023-04-25T03:43:45.000Z,79.96
2023-04-25T03:46:14.397Z,79.92
2023-04-25T03:48:42.994Z,80.14
2023-04-25T03:51:13.557Z,79.91
2023-04-25T03:53:44.063Z,79.81
2023-04-25T03:56:17.166Z,79.23
2023-04-25T03:58:46.928Z,78.81
2023-04-25T04:01:16.392Z,78.53
2023-04-25T04:03:43.922Z,78.05
2023-04-25T04:06:11.854Z,77.89
2023-04-25T04:08:45.183Z,77.99
2023-04-25T04:11:12.812Z,78.54
2023-04-25T04:13:40.341Z,76.87
2023-04-25T04:16:08.631Z,78.02
2023-04-25T04:18:36.909Z,74.26
2023-04-25T04:21:06.804Z,70.55
2023-04-25T04:23:39.504Z,70.94
2023-04-25T04:26:09.826Z,68.83
2023-04-25T04:28:57.604Z,70.40
2023-04-25T04:31:46.541Z,68.63
2023-04-25T04:34:13.835Z,67.47
2023-04-25T04:36:42.386Z,67.83
2023-04-25T04:39:10.314Z,68.51
2023-04-25T04:41:54.738Z,66.26
2023-04-25T04:44:40.449Z,66.68
2023-04-25T04:47:25.094Z,66.70
2023-04-25T04:50:05.213Z,62.55
2023-04-25T04:53:05.219Z,63.81
2023-04-25T04:55:49.097Z,64.24
2023-04-25T04:58:37.930Z,61.96
2023-04-25T05:01:31.468Z,64.15
2023-04-25T05:04:09.783Z,65.39
2023-04-25T05:06:55.617Z,61.31
2023-04-25T05:09:43.507Z,65.23
2023-04-25T05:12:10.834Z,65.69
2023-04-25T05:14:38.099Z,65.90
2023-04-25T05:17:32.486Z,65.66
2023-04-25T05:20:22.863Z,66.22
2023-04-25T05:23:16.681Z,64.56
2023-04-25T05:26:06.084Z,64.71
2023-04-25T05:28:39.519Z,65.22
2023-04-25T05:31:24.834Z,64.92
2023-04-25T05:33:59.351Z,60.80
2023-04-25T05:36:35.340Z,59.55
2023-04-25T05:39:04.482Z,58.57
2023-04-25T05:41:50.440Z,58.87
2023-04-25T05:44:47.539Z,58.35
2023-04-25T05:47:33.688Z,58.13
2023-04-25T05:50:09.784Z,57.97
2023-04-25T05:52:54.062Z,57.79
2023-04-25T05:55:43.048Z,56.89
2023-04-25T05:58:25.422Z,57.09
2023-04-25T06:00:55.322Z,56.35
2023-04-25T06:03:29.706Z,56.11
2023-04-25T06:06:01.464Z,55.98
2023-04-25T06:08:29.637Z,54.97
2023-04-25T06:10:59.581Z,55.18
2023-04-25T06:13:27.237Z,54.92
2023-04-25T06:15:56.636Z,54.23
2023-04-25T06:18:24.604Z,55.35
2023-04-25T06:20:52.029Z,52.33
2023-04-25T06:23:20.394Z,54.45
2023-04-25T06:26:00.251Z,50.73
2023-04-25T06:28:29.448Z,50.98
2023-04-25T06:30:56.830Z,50.89
2023-04-25T06:33:25.434Z,50.67
2023-04-25T06:35:54.143Z,50.74
2023-04-25T06:38:26.078Z,51.73
2023-04-25T06:40:56.409Z,49.43
2023-04-25T06:43:34.387Z,42.99
2023-04-25T06:46:25.731Z,39.69
2023-04-25T06:48:57.059Z,36.84
2023-04-25T06:51:25.531Z,34.57
2023-04-25T06:53:55.171Z,35.21
2023-04-25T06:56:30.880Z,31.80
2023-04-25T06:59:09.372Z,31.40
2023-04-25T07:01:39.518Z,31.61
2023-04-25T07:04:12.476Z,30.69
2023-04-25T07:06:48.238Z,31.75
2023-04-25T07:09:17.973Z,30.85
2023-04-25T07:11:48.298Z,30.58
2023-04-25T07:14:16.368Z,33.14
2023-04-25T07:16:43.856Z,31.17
2023-04-25T07:19:12.204Z,31.60
2023-04-25T07:21:41.359Z,30.57
2023-04-25T07:24:11.205Z,30.29
2023-04-25T07:26:45.306Z,29.91
2023-04-25T07:29:32.437Z,29.39
2023-04-25T07:32:04.407Z,30.34
2023-04-25T07:34:33.277Z,32.08
2023-04-25T07:37:34.978Z,32.16
2023-04-25T07:40:07.382Z,32.26
2023-04-25T07:42:40.752Z,32.14
2023-04-25T07:45:24.281Z,30.21
2023-04-25T07:48:06.198Z,31.42
2023-04-25T07:50:39.788Z,30.16
2023-04-25T07:53:08.244Z,29.47
2023-04-25T07:55:44.477Z,30.37
2023-04-25T07:58:22.631Z,28.41
2023-04-25T08:00:57.432Z,29.61
2023-04-25T08:03:48.287Z,30.86
2023-04-25T08:06:22.980Z,30.51
2023-04-25T08:09:00.254Z,31.70
2023-04-25T08:11:35.250Z,36.82
2023-04-25T08:14:03.840Z,32.50
2023-04-25T08:16:35.359Z,29.32
2023-04-25T08:19:09.794Z,29.11
2023-04-25T08:21:38.000Z,30.35
2023-04-25T08:24:22.167Z,29.58
2023-04-25T08:26:50.549Z,29.06
2023-04-25T08:29:20.539Z,29.09
2023-04-25T08:31:54.807Z,28.64
2023-04-25T08:34:23.653Z,29.68
2023-04-25T08:36:52.444Z,29.92
2023-04-25T08:39:46.804Z,30.98
2023-04-25T08:42:23.046Z,31.59
2023-04-25T08:44:52.958Z,30.25
2023-04-25T08:47:21.982Z,32.85
2023-04-25T08:49:53.322Z,34.88
2023-04-25T08:52:23.507Z,38.21
2023-04-25T08:54:51.721Z,39.34
2023-04-25T08:57:20.771Z,42.88
2023-04-25T08:59:50.146Z,42.66
2023-04-25T09:02:20.089Z,42.17
2023-04-25T09:08:01.953Z,43.39
2023-04-25T09:10:36.670Z,44.10
2023-04-25T09:13:35.092Z,44.61
2023-04-25T09:16:26.180Z,45.18
2023-04-25T09:19:38.973Z,44.26
2023-04-25T09:23:16.836Z,44.47
2023-04-25T09:25:57.862Z,42.17
2023-04-25T09:28:30.929Z,40.17
2023-04-25T09:31:02.308Z,40.46
2023-04-25T09:33:54.684Z,41.12
2023-04-25T09:36:52.837Z,42.18
2023-04-25T09:43:25.247Z,42.95
2023-04-25T09:45:56.788Z,43.44
2023-04-25T09:48:26.621Z,43.30
2023-04-25T09:51:09.694Z,43.70
2023-04-25T09:53:42.282Z,43.90
2023-04-25T09:56:23.423Z,44.44
2023-04-25T09:58:51.219Z,44.14
2023-04-25T10:01:18.683Z,43.84
2023-04-25T10:04:24.134Z,43.81
2023-04-25T10:07:02.715Z,44.14
2023-04-25T10:09:35.182Z,44.05
2023-04-25T10:12:04.331Z,45.38
2023-04-25T10:14:32.549Z,46.90
2023-04-25T10:17:00.862Z,44.55
2023-04-25T10:19:31.999Z,45.31
2023-04-25T10:22:10.511Z,44.08
2023-04-25T10:24:38.484Z,41.35
2023-04-25T10:27:05.934Z,40.51
2023-04-25T10:29:33.902Z,38.93
2023-04-25T10:32:01.693Z,37.07
2023-04-25T10:34:43.282Z,36.71
2023-04-25T10:37:12.021Z,37.69
2023-04-25T10:39:43.063Z,37.13
2023-04-25T10:42:11.377Z,38.29
2023-04-25T10:44:40.125Z,40.71
2023-04-25T10:47:11.477Z,42.15
2023-04-25T10:49:44.551Z,42.55
2023-04-25T10:52:28.425Z,41.90
2023-04-25T10:54:57.071Z,41.64
2023-04-25T10:57:37.260Z,42.01
2023-04-25T11:00:16.242Z,42.96
2023-04-25T11:02:49.803Z,43.28
2023-04-25T11:05:50.961Z,42.26
2023-04-25T11:08:19.549Z,43.96
2023-04-25T11:10:47.055Z,44.18
2023-04-25T11:13:14.743Z,41.78
2023-04-25T11:15:42.277Z,42.54
2023-04-25T11:18:17.853Z,42.11
2023-04-25T11:20:45.968Z,44.60
2023-04-25T11:23:13.673Z,45.08
2023-04-25T11:25:46.989Z,47.00
2023-04-25T11:28:14.400Z,46.69
2023-04-25T11:30:48.677Z,46.99
2023-04-25T11:33:16.626Z,45.17
2023-04-25T11:35:44.642Z,45.40
2023-04-25T11:38:12.982Z,45.31
2023-04-25T11:40:40.727Z,44.46
2023-04-25T11:43:08.572Z,44.37
2023-04-25T11:45:38.103Z,43.19
2023-04-25T11:48:05.817Z,43.17
2023-04-25T11:50:33.950Z,42.99
2023-04-25T11:53:04.475Z,42.78
2023-04-25T11:55:32.315Z,42.48
2023-04-25T11:58:01.554Z,44.36
2023-04-25T12:00:29.413Z,44.88
2023-04-25T12:02:59.427Z,44.66
2023-04-25T12:05:32.873Z,47.69
2023-04-25T12:08:17.437Z,49.79
2023-04-25T12:10:49.710Z,47.83
2023-04-25T12:13:25.096Z,49.40
2023-04-25T12:15:56.457Z,50.63
2023-04-25T12:18:28.781Z,51.57
2023-04-25T12:20:57.840Z,51.76
2023-04-25T12:23:29.427Z,50.47
2023-04-25T12:26:00.162Z,50.68
2023-04-25T12:28:32.356Z,49.93
2023-04-25T12:31:01.990Z,46.76
2023-04-25T12:33:37.389Z,45.90
2023-04-25T12:36:09.868Z,45.24
2023-04-25T12:38:42.695Z,45.67
2023-04-25T12:41:10.717Z,44.56
2023-04-25T12:43:38.047Z,44.05
2023-04-25T12:46:05.811Z,44.45
2023-04-25T12:48:33.376Z,43.49
2023-04-25T12:51:01.874Z,42.74
2023-04-25T12:53:30.014Z,43.37
2023-04-25T12:55:57.507Z,41.19
2023-04-25T12:58:26.156Z,41.49
2023-04-25T13:00:53.788Z,41.54
2023-04-25T13:03:21.416Z,41.46
2023-04-25T13:05:49.027Z,40.86
2023-04-25T13:08:16.546Z,40.51
2023-04-25T13:10:44.160Z,40.13
2023-04-25T13:13:14.155Z,37.89
2023-04-25T13:15:41.892Z,37.59
2023-04-25T13:18:09.245Z,42.23
2023-04-25T13:20:36.794Z,42.58
2023-04-25T13:23:04.071Z,42.70
2023-04-25T13:25:34.095Z,42.85
2023-04-25T13:28:01.374Z,43.61
2023-04-25T13:30:28.980Z,43.50
2023-04-25T13:32:58.104Z,44.75
2023-04-25T13:35:25.803Z,45.06
2023-04-25T13:37:53.112Z,45.39
2023-04-25T13:40:20.496Z,43.95
2023-04-25T13:42:47.758Z,43.85
2023-04-25T13:45:15.304Z,48.46
2023-04-25T13:47:42.714Z,51.74
2023-04-25T13:50:10.799Z,55.25
2023-04-25T13:52:39.065Z,58.95
2023-04-25T13:55:08.420Z,52.74
2023-04-25T13:57:41.257Z,50.00
2023-04-25T14:00:12.466Z,50.65
2023-04-25T14:02:40.165Z,53.20
2023-04-25T14:05:08.128Z,55.17
2023-04-25T14:07:36.143Z,53.94
2023-04-25T14:10:05.202Z,54.50
2023-04-25T14:12:33.189Z,50.18
2023-04-25T14:15:00.452Z,50.14
2023-04-25T14:17:27.998Z,50.03
2023-04-25T14:19:55.784Z,49.11
2023-04-25T14:22:23.188Z,51.99
2023-04-25T14:24:50.442Z,48.65
2023-04-25T14:27:17.788Z,51.30
2023-04-25T14:29:45.107Z,50.51
2023-04-25T14:32:12.942Z,52.11
2023-04-25T14:34:40.415Z,47.93
2023-04-25T14:37:08.143Z,50.99
2023-04-25T14:39:35.466Z,46.63
2023-04-25T14:42:03.003Z,48.00
2023-04-25T14:44:30.277Z,47.70
2023-04-25T14:46:57.804Z,49.06
2023-04-25T14:49:25.220Z,47.84
2023-04-25T14:51:52.785Z,49.60
2023-04-25T14:54:20.208Z,45.74
2023-04-25T14:56:47.820Z,45.02
2023-04-25T14:59:15.167Z,43.71
2023-04-25T15:01:42.736Z,43.15
2023-04-25T15:04:10.356Z,42.47
2023-04-25T15:06:38.953Z,42.99
2023-04-25T15:09:06.364Z,42.62
2023-04-25T15:11:33.816Z,41.54
2023-04-25T15:14:01.077Z,43.62
2023-04-25T15:16:28.452Z,43.68
2023-04-25T15:18:55.895Z,42.36
2023-04-25T15:21:23.236Z,43.52
2023-04-25T15:23:51.233Z,44.24
2023-04-25T15:26:19.281Z,45.67
2023-04-25T15:28:46.538Z,43.48
2023-04-25T15:31:13.940Z,43.79
2023-04-25T15:33:41.243Z,42.98
2023-04-25T15:36:08.837Z,45.23
2023-04-25T15:38:36.402Z,45.22
2023-04-25T15:41:06.804Z,44.12
2023-04-25T15:43:38.362Z,44.86
2023-04-25T15:46:06.683Z,46.48
2023-04-25T15:48:34.841Z,46.07
2023-04-25T15:51:02.409Z,47.38
2023-04-25T15:53:29.706Z,46.17
2023-04-25T15:55:57.074Z,46.35
2023-04-25T15:58:24.907Z,45.63
2023-04-25T16:00:52.357Z,45.93
2023-04-25T16:03:19.673Z,46.08
2023-04-25T16:05:48.194Z,44.48
2023-04-25T16:08:15.596Z,44.52
2023-04-25T16:10:43.063Z,44.94
2023-04-25T16:13:10.594Z,45.35
2023-04-25T16:15:38.081Z,45.45
2023-04-25T16:18:05.725Z,45.40
2023-04-25T16:20:33.166Z,46.89
2023-04-25T16:23:01.398Z,47.28
2023-04-25T16:25:28.948Z,46.17
2023-04-25T16:27:56.510Z,48.02
2023-04-25T16:30:23.993Z,46.93
2023-04-25T16:32:51.235Z,48.13
2023-04-25T16:35:18.785Z,46.65
2023-04-25T16:37:46.269Z,46.75
2023-04-25T16:40:13.817Z,46.86
2023-04-25T16:42:41.100Z,47.48
2023-04-25T16:45:09.247Z,47.93
2023-04-25T16:47:36.815Z,46.74
2023-04-25T16:50:04.418Z,46.81
2023-04-25T16:52:31.854Z,47.02
2023-04-25T16:54:59.188Z,47.92
2023-04-25T16:57:26.484Z,47.12
2023-04-25T16:59:53.772Z,47.38
2023-04-25T17:02:21.102Z,47.32
2023-04-25T17:04:48.685Z,49.15
2023-04-25T17:07:16.801Z,47.53
2023-04-25T17:09:44.221Z,47.86
2023-04-25T17:12:11.542Z,48.28
2023-04-25T17:14:39.136Z,48.00
2023-04-25T17:17:09.641Z,48.32
2023-04-25T17:19:37.717Z,48.04
2023-04-25T17:22:05.136Z,49.50
2023-04-25T17:24:32.673Z,49.47
2023-04-25T17:26:59.925Z,49.55
2023-04-25T17:29:27.993Z,50.30
2023-04-25T17:31:57.110Z,50.19
2023-04-25T17:34:24.509Z,51.03
2023-04-25T17:36:51.926Z,50.96
2023-04-25T17:39:20.151Z,51.94
2023-04-25T17:41:47.395Z,51.73
2023-04-25T17:44:14.876Z,52.71
2023-04-25T17:46:42.216Z,51.89
2023-04-25T17:49:09.579Z,52.92
2023-04-25T17:51:37.218Z,52.41
2023-04-25T17:54:04.856Z,52.53
2023-04-25T17:56:33.829Z,53.61
2023-04-25T17:59:01.669Z,53.55
2023-04-25T18:01:29.043Z,53.79
2023-04-25T18:03:56.698Z,55.30
2023-04-25T18:06:24.083Z,54.86
2023-04-25T18:08:52.853Z,54.92
2023-04-25T18:11:20.820Z,54.82
2023-04-25T18:13:48.123Z,55.74
2023-04-25T18:16:16.059Z,56.71
2023-04-25T18:18:44.390Z,56.91
2023-04-25T18:21:11.856Z,55.97
2023-04-25T18:23:39.194Z,54.25
2023-04-25T18:26:06.502Z,53.18
2023-04-25T18:28:34.477Z,53.31
2023-04-25T18:31:02.201Z,54.61
2023-04-25T18:33:29.762Z,53.58
2023-04-25T18:35:59.836Z,54.44
2023-04-25T18:41:06.212Z,53.84
2023-04-25T18:43:44.519Z,54.70
2023-04-25T18:46:12.063Z,54.14
2023-04-25T18:48:39.428Z,55.49
2023-04-25T18:51:06.741Z,55.26
2023-04-25T18:53:34.004Z,55.37
2023-04-25T18:56:01.323Z,56.33
2023-04-25T18:58:28.657Z,55.59
2023-04-25T19:00:56.402Z,56.56
2023-04-25T19:03:23.831Z,56.92
2023-04-25T19:05:51.791Z,57.55
2023-04-25T19:08:19.097Z,56.52
2023-04-25T19:10:46.926Z,56.75
2023-04-25T19:13:14.304Z,56.93
2023-04-25T19:15:41.562Z,57.80
2023-04-25T19:18:09.073Z,57.43
2023-04-25T19:20:36.427Z,56.53
2023-04-25T19:23:05.149Z,57.25
2023-04-25T19:25:32.498Z,57.55
2023-04-25T19:28:00.725Z,56.86
2023-04-25T19:30:31.785Z,58.15
2023-04-25T19:32:59.270Z,56.87
2023-04-25T19:35:30.808Z,57.17
2023-04-25T19:37:58.601Z,57.51
2023-04-25T19:40:25.911Z,56.71
2023-04-25T19:42:53.213Z,57.29
2023-04-25T19:45:20.813Z,56.97
2023-04-25T19:47:49.197Z,56.60
2023-04-25T19:50:17.940Z,56.72
2023-04-25T19:52:45.407Z,56.90
2023-04-25T19:55:12.674Z,57.09
2023-04-25T19:57:40.151Z,57.44
2023-04-25T20:00:10.827Z,57.58
2023-04-25T20:02:41.530Z,58.10
2023-04-25T20:05:09.615Z,57.52
2023-04-25T20:07:37.017Z,57.73
2023-04-25T20:10:06.925Z,57.84
2023-04-25T20:12:37.285Z,57.74
2023-04-25T20:15:05.066Z,58.60
2023-04-25T20:17:32.296Z,58.55
2023-04-25T20:19:59.771Z,58.63
2023-04-25T20:22:28.706Z,59.54
2023-04-25T20:24:55.974Z,58.63
2023-04-25T20:27:23.155Z,59.05
2023-04-25T20:29:50.414Z,59.21
2023-04-25T20:32:17.636Z,59.85
2023-04-25T20:34:44.954Z,59.05
2023-04-25T20:37:12.360Z,59.25
2023-04-25T20:39:39.726Z,59.68
2023-04-25T20:42:06.956Z,59.41
2023-04-25T20:44:34.257Z,59.33
2023-04-25T20:47:01.621Z,59.16
2023-04-25T20:49:28.947Z,59.40
2023-04-25T20:51:56.170Z,59.76
2023-04-25T20:54:24.242Z,59.67
2023-04-25T20:56:52.472Z,59.93
2023-04-25T20:59:20.063Z,60.63
2023-04-25T21:01:47.310Z,59.91
2023-04-25T21:04:15.513Z,60.03
2023-04-25T21:06:43.020Z,61.01
2023-04-25T21:09:10.310Z,59.96
2023-04-25T21:11:38.467Z,59.87
2023-04-25T21:14:05.791Z,59.94
2023-04-25T21:16:35.366Z,60.24
2023-04-25T21:19:02.833Z,60.09
2023-04-25T21:21:30.153Z,60.46
2023-04-25T21:23:57.757Z,60.11
2023-04-25T21:26:25.928Z,60.36
2023-04-25T21:28:54.248Z,60.20
2023-04-25T21:31:22.368Z,60.73
2023-04-25T21:33:49.911Z,60.53
2023-04-25T21:36:17.712Z,60.56
2023-04-25T21:38:45.020Z,59.98
2023-04-25T21:41:12.228Z,60.15
2023-04-25T21:43:39.499Z,59.85
2023-04-25T21:46:22.312Z,60.15
2023-04-25T21:48:51.557Z,59.85
2023-04-25T21:51:19.597Z,60.05
2023-04-25T21:53:46.898Z,60.06
2023-04-25T21:56:14.127Z,59.97
2023-04-25T21:58:41.498Z,60.03
2023-04-25T22:01:09.947Z,60.31
2023-04-25T22:03:37.378Z,60.33
2023-04-25T22:06:04.759Z,60.55
2023-04-25T22:08:32.193Z,61.07
2023-04-25T22:11:00.111Z,60.94
2023-04-25T22:13:29.128Z,61.26
2023-04-25T22:15:56.398Z,61.42
2023-04-25T22:18:23.764Z,62.70
2023-04-25T22:20:50.960Z,62.31
2023-04-25T22:23:18.346Z,61.12
2023-04-25T22:25:46.385Z,60.70
2023-04-25T22:28:14.816Z,61.27
2023-04-25T22:30:42.342Z,61.10
2023-04-25T22:33:09.683Z,61.26
2023-04-25T22:35:37.112Z,61.17
2023-04-25T22:38:04.534Z,61.52
2023-04-25T22:40:31.826Z,61.85
2023-04-25T22:42:59.088Z,61.26
2023-04-25T22:45:26.436Z,61.09
2023-04-25T22:47:54.402Z,61.32
2023-04-25T22:50:21.752Z,61.83
2023-04-25T22:52:49.071Z,61.82
2023-04-25T22:55:16.385Z,61.74
2023-04-25T22:57:43.855Z,61.80
2023-04-25T23:00:20.310Z,62.16
2023-04-25T23:02:48.132Z,62.82
2023-04-25T23:05:15.749Z,62.23
2023-04-25T23:07:44.737Z,63.46
2023-04-25T23:10:13.241Z,62.82
2023-04-25T23:12:41.004Z,62.75
2023-04-25T23:15:08.778Z,62.68
2023-04-25T23:17:37.062Z,63.51
2023-04-25T23:20:07.758Z,62.82
2023-04-25T23:22:35.232Z,63.39
2023-04-25T23:25:02.500Z,63.35
2023-04-25T23:27:29.720Z,64.00
2023-04-25T23:29:58.086Z,64.26
2023-04-25T23:32:26.516Z,63.89
2023-04-25T23:34:53.821Z,64.20
2023-04-25T23:37:21.408Z,64.15
2023-04-25T23:39:51.872Z,64.15
2023-04-25T23:42:20.034Z,65.06
2023-04-25T23:44:47.227Z,64.56
2023-04-25T23:47:17.560Z,64.62
2023-04-25T23:49:45.883Z,65.02
2023-04-25T23:52:13.213Z,65.43
2023-04-25T23:54:40.539Z,64.93
2023-04-25T23:57:07.837Z,65.00
2023-04-25T23:59:35.193Z,65.26
